createdAt,value
2022-11-12T00:00:42.676Z,17.48
2022-11-12T00:02:45.375Z,21.95
2022-11-12T00:04:47.972Z,19.50
2022-11-12T00:06:50.592Z,19.67
2022-11-12T00:08:53.272Z,22.55
2022-11-12T00:10:57.238Z,31.73
2022-11-12T00:13:00.227Z,38.83
2022-11-12T00:15:03.199Z,35.40
2022-11-12T00:17:05.826Z,27.23
2022-11-12T00:19:08.538Z,19.67
2022-11-12T00:21:11.139Z,20.70
2022-11-12T00:23:13.784Z,19.95
2022-11-12T00:25:16.574Z,19.00
2022-11-12T00:27:20.788Z,19.80
2022-11-12T00:29:23.416Z,20.83
2022-11-12T00:31:26.111Z,20.90
2022-11-12T00:33:28.757Z,23.17
2022-11-12T00:35:32.615Z,22.48
2022-11-12T00:37:35.239Z,21.15
2022-11-12T00:39:37.865Z,23.77
2022-11-12T00:41:40.535Z,26.80
2022-11-12T00:43:44.498Z,26.48
2022-11-12T00:45:47.125Z,22.85
2022-11-12T00:47:49.992Z,20.67
2022-11-12T00:49:52.677Z,19.65
2022-11-12T00:51:55.296Z,21.42
2022-11-12T00:53:58.056Z,19.00
2022-11-12T00:56:01.980Z,23.23
2022-11-12T00:58:04.668Z,20.60
2022-11-12T01:00:15.890Z,18.40
2022-11-12T01:02:19.978Z,18.63
2022-11-12T01:04:22.583Z,19.23
2022-11-12T01:06:26.101Z,16.92
2022-11-12T01:08:30.608Z,16.48
2022-11-12T01:10:33.420Z,19.25
2022-11-12T01:12:36.063Z,18.35
2022-11-12T01:14:38.819Z,18.65
2022-11-12T01:16:43.307Z,30.98
2022-11-12T01:18:45.898Z,37.33
2022-11-12T01:20:48.572Z,47.00
2022-11-12T01:22:51.253Z,61.35
2022-11-12T01:24:53.839Z,36.95
2022-11-12T01:26:56.459Z,58.03
2022-11-12T01:28:59.531Z,34.85
2022-11-12T01:31:11.652Z,33.25
2022-11-12T01:33:15.634Z,19.42
2022-11-12T01:35:18.411Z,14.60
2022-11-12T01:37:21.060Z,23.58
2022-11-12T01:39:23.754Z,25.50
2022-11-12T01:41:28.664Z,31.75
2022-11-12T01:43:31.303Z,19.00
2022-11-12T01:45:33.885Z,21.30
2022-11-12T01:47:36.517Z,17.13
2022-11-12T01:49:50.457Z,24.38
2022-11-12T01:51:59.761Z,15.85
2022-11-12T01:54:06.441Z,17.42
2022-11-12T01:56:09.126Z,17.90
2022-11-12T01:58:14.775Z,16.85
2022-11-12T02:00:18.529Z,15.13
2022-11-12T02:02:21.195Z,16.65
2022-11-12T02:04:26.337Z,21.45
2022-11-12T02:06:31.473Z,15.18
2022-11-12T02:08:35.003Z,16.33
2022-11-12T02:10:39.765Z,14.07
2022-11-12T02:13:00.470Z,15.23
2022-11-12T02:15:04.561Z,13.07
2022-11-12T02:17:07.311Z,13.00
2022-11-12T02:19:12.788Z,12.18
2022-11-12T02:21:15.370Z,13.05
2022-11-12T02:23:19.368Z,12.88
2022-11-12T02:25:25.486Z,14.35
2022-11-12T02:27:28.706Z,12.75
2022-11-12T02:29:31.417Z,13.18
2022-11-12T02:31:34.419Z,12.88
2022-11-12T02:33:37.000Z,16.27
2022-11-12T02:35:39.706Z,14.27
2022-11-12T02:37:42.317Z,14.88
2022-11-12T02:39:46.229Z,16.52
2022-11-12T02:41:48.827Z,16.77
2022-11-12T02:43:51.415Z,15.98
2022-11-12T02:45:54.091Z,16.83
2022-11-12T02:47:56.721Z,15.65
2022-11-12T02:49:59.287Z,14.73
2022-11-12T02:52:01.901Z,17.67
2022-11-12T02:54:04.792Z,15.43
2022-11-12T02:56:09.136Z,14.18
2022-11-12T02:58:11.788Z,13.02
2022-11-12T03:00:15.107Z,12.18
2022-11-12T03:02:17.722Z,15.63
2022-11-12T03:04:20.314Z,15.23
2022-11-12T03:06:23.131Z,12.25
2022-11-12T03:08:26.530Z,14.07
2022-11-12T03:10:29.920Z,14.10
2022-11-12T03:12:34.104Z,13.15
2022-11-12T03:14:36.803Z,15.00
2022-11-12T03:16:39.391Z,11.75
2022-11-12T03:18:41.994Z,10.95
2022-11-12T03:20:44.570Z,10.45
2022-11-12T03:22:57.012Z,14.13
2022-11-12T03:24:59.715Z,16.63
2022-11-12T03:27:02.336Z,16.42
2022-11-12T03:29:06.448Z,13.00
2022-11-12T03:31:11.867Z,12.70
2022-11-12T03:33:15.758Z,12.55
2022-11-12T03:35:18.415Z,12.30
2022-11-12T03:37:21.059Z,12.88
2022-11-12T03:39:23.690Z,12.45
2022-11-12T03:41:26.327Z,12.90
2022-11-12T03:43:29.056Z,12.82
2022-11-12T03:45:33.004Z,11.55
2022-11-12T03:47:35.780Z,11.02
2022-11-12T03:49:38.362Z,20.42
2022-11-12T03:51:40.996Z,23.33
2022-11-12T03:53:43.588Z,16.90
2022-11-12T03:55:46.376Z,39.00
2022-11-12T03:57:49.943Z,28.90
2022-11-12T03:59:52.577Z,13.20
2022-11-12T04:01:56.568Z,12.45
2022-11-12T04:03:59.164Z,13.23
2022-11-12T04:06:19.017Z,13.75
2022-11-12T04:08:38.403Z,15.15
2022-11-12T04:10:41.029Z,13.50
2022-11-12T04:13:00.922Z,13.88
2022-11-12T04:15:03.698Z,11.23
2022-11-12T04:17:25.139Z,11.43
2022-11-12T04:19:45.509Z,10.52
2022-11-12T04:21:54.732Z,13.85
2022-11-12T04:23:57.467Z,12.88
2022-11-12T04:26:18.007Z,11.20
2022-11-12T04:28:20.659Z,12.70
2022-11-12T04:30:22.270Z,12.40
2022-11-12T04:32:26.685Z,12.98
2022-11-12T04:34:32.003Z,12.15
2022-11-12T04:36:34.613Z,12.02
2022-11-12T04:38:37.231Z,11.13
2022-11-12T04:41:05.738Z,11.50
2022-11-12T04:43:28.682Z,12.65
2022-11-12T04:45:31.322Z,9.70
2022-11-12T04:47:37.070Z,11.65
2022-11-12T04:49:39.679Z,7.85
2022-11-12T04:51:59.807Z,10.82
2022-11-12T04:54:02.421Z,11.60
2022-11-12T04:56:05.558Z,12.13
2022-11-12T04:58:08.199Z,12.07
2022-11-12T05:00:12.755Z,10.35
2022-11-12T05:02:15.443Z,11.68
2022-11-12T05:04:19.550Z,10.25
2022-11-12T05:06:39.639Z,9.90
2022-11-12T05:08:42.306Z,11.75
2022-11-12T05:10:45.519Z,11.65
2022-11-12T05:12:48.128Z,11.80
2022-11-12T05:14:50.690Z,11.10
2022-11-12T05:16:53.436Z,11.40
2022-11-12T05:18:56.042Z,13.38
2022-11-12T05:21:19.937Z,11.25
2022-11-12T05:23:22.564Z,10.57
2022-11-12T05:25:25.197Z,10.43
2022-11-12T05:27:27.898Z,10.63
2022-11-12T05:29:30.566Z,9.52
2022-11-12T05:31:33.289Z,10.88
2022-11-12T05:33:35.889Z,11.18
2022-11-12T05:35:38.509Z,9.95
2022-11-12T05:37:42.443Z,12.35
2022-11-12T05:39:45.105Z,11.48
2022-11-12T05:42:11.204Z,29.92
2022-11-12T05:44:11.486Z,27.27
2022-11-12T05:46:14.076Z,54.83
2022-11-12T05:48:21.511Z,48.95
2022-11-12T05:50:34.911Z,41.92
2022-11-12T05:52:43.671Z,69.53
2022-11-12T05:54:46.336Z,45.15
2022-11-12T05:56:49.133Z,71.35
2022-11-12T05:58:51.723Z,46.45
2022-11-12T06:00:54.359Z,21.98
2022-11-12T06:02:58.430Z,36.35
2022-11-12T06:05:01.158Z,41.00
2022-11-12T06:07:04.149Z,33.35
2022-11-12T06:09:09.051Z,31.30
2022-11-12T06:11:11.746Z,26.48
2022-11-12T06:13:14.358Z,44.90
2022-11-12T06:15:17.311Z,32.47
2022-11-12T06:17:19.905Z,58.50
2022-11-12T06:19:22.530Z,32.78
2022-11-12T06:21:27.493Z,48.70
2022-11-12T06:23:30.058Z,39.85
2022-11-12T06:25:34.206Z,59.83
2022-11-12T06:27:37.069Z,72.88
2022-11-12T06:29:39.631Z,58.72
2022-11-12T06:31:42.306Z,51.63
2022-11-12T06:33:45.691Z,52.85
2022-11-12T06:35:48.465Z,60.83
2022-11-12T06:37:51.083Z,41.70
2022-11-12T06:39:53.706Z,62.58
2022-11-12T06:41:57.691Z,48.38
2022-11-12T06:44:00.313Z,67.40
2022-11-12T06:46:03.671Z,55.35
2022-11-12T06:48:06.385Z,45.10
2022-11-12T06:50:09.646Z,48.05
2022-11-12T06:52:16.425Z,27.63
2022-11-12T06:54:19.447Z,37.70
2022-11-12T06:56:22.055Z,39.33
2022-11-12T06:58:26.276Z,29.55
2022-11-12T07:00:29.164Z,20.17
2022-11-12T07:02:31.809Z,34.55
2022-11-12T07:04:34.414Z,46.28
2022-11-12T07:06:38.054Z,29.63
2022-11-12T07:08:40.969Z,30.20
2022-11-12T07:10:43.583Z,68.88
2022-11-12T07:12:52.010Z,44.08
2022-11-12T07:14:57.255Z,30.38
2022-11-12T07:16:59.930Z,26.95
2022-11-12T07:19:02.660Z,34.30
2022-11-12T07:21:07.586Z,25.20
2022-11-12T07:23:10.258Z,49.75
2022-11-12T07:25:12.879Z,25.63
2022-11-12T07:27:15.655Z,19.52
2022-11-12T07:29:35.695Z,58.92
2022-11-12T07:31:42.433Z,34.05
2022-11-12T07:33:46.007Z,49.28
2022-11-12T07:35:48.600Z,28.52
2022-11-12T07:37:52.870Z,25.70
2022-11-12T07:39:57.325Z,54.13
2022-11-12T07:42:00.058Z,83.53
2022-11-12T07:44:02.837Z,67.18
2022-11-12T07:46:10.810Z,84.85
2022-11-12T07:48:15.187Z,64.82
2022-11-12T07:50:18.020Z,74.95
2022-11-12T07:52:20.618Z,92.22
2022-11-12T07:54:23.236Z,61.55
2022-11-12T07:56:27.113Z,92.60
2022-11-12T07:58:32.649Z,62.28
2022-11-12T08:00:35.459Z,63.28
2022-11-12T08:02:38.036Z,67.97
2022-11-12T08:04:41.990Z,81.82
2022-11-12T08:06:44.657Z,88.55
2022-11-12T08:08:47.443Z,89.03
2022-11-12T08:10:54.530Z,78.78
2022-11-12T08:12:57.295Z,54.33
2022-11-12T08:14:59.899Z,71.00
2022-11-12T08:17:02.503Z,62.78
2022-11-12T08:19:05.139Z,49.22
2022-11-12T08:21:12.732Z,45.22
2022-11-12T08:23:15.389Z,61.78
2022-11-12T08:25:18.949Z,53.83
2022-11-12T08:27:21.530Z,62.53
2022-11-12T08:29:24.246Z,27.02
2022-11-12T08:31:26.885Z,43.67
2022-11-12T08:33:29.486Z,31.80
2022-11-12T08:35:33.518Z,49.75
2022-11-12T08:37:37.573Z,47.80
2022-11-12T08:39:40.299Z,66.03
2022-11-12T08:41:42.999Z,41.70
2022-11-12T08:43:45.659Z,67.95
2022-11-12T08:45:50.000Z,50.83
2022-11-12T08:47:52.761Z,39.42
2022-11-12T08:49:55.509Z,30.27
2022-11-12T08:51:58.688Z,29.42
2022-11-12T08:54:02.874Z,15.10
2022-11-12T08:56:05.734Z,11.70
2022-11-12T08:58:10.357Z,10.50
2022-11-12T09:00:14.518Z,10.05
2022-11-12T09:02:17.163Z,8.43
2022-11-12T09:04:19.799Z,8.02
2022-11-12T09:06:22.432Z,7.63
2022-11-12T09:08:26.659Z,10.27
2022-11-12T09:10:30.983Z,7.75
2022-11-12T09:12:34.474Z,6.88
2022-11-12T09:14:37.155Z,7.85
2022-11-12T09:16:39.846Z,7.18
2022-11-12T09:18:42.502Z,9.30
2022-11-12T09:20:45.537Z,7.65
2022-11-12T09:22:48.282Z,8.73
2022-11-12T09:24:50.897Z,11.10
2022-11-12T09:26:55.150Z,9.43
2022-11-12T09:28:57.764Z,8.82
2022-11-12T09:31:02.411Z,9.82
2022-11-12T09:33:05.400Z,8.07
2022-11-12T09:35:08.812Z,8.45
2022-11-12T09:37:11.513Z,8.18
2022-11-12T09:39:14.150Z,6.97
2022-11-12T09:41:26.635Z,6.97
2022-11-12T09:43:34.536Z,7.80
2022-11-12T09:45:38.151Z,8.25
2022-11-12T09:47:44.885Z,9.85
2022-11-12T09:51:57.384Z,7.60
2022-11-12T09:54:02.664Z,7.03
2022-11-12T09:56:08.195Z,8.82
2022-11-12T09:58:12.371Z,7.97
2022-11-12T10:00:19.445Z,9.75
2022-11-12T10:02:28.822Z,9.23
2022-11-12T10:04:48.037Z,10.70
2022-11-12T10:07:05.406Z,10.68
2022-11-12T10:09:14.884Z,10.55
2022-11-12T10:12:12.830Z,11.15
2022-11-12T10:14:29.518Z,11.55
2022-11-12T10:16:56.483Z,10.50
2022-11-12T10:19:39.122Z,10.90
2022-11-12T10:21:48.911Z,10.90
2022-11-12T10:23:54.429Z,10.55
2022-11-12T10:26:00.719Z,10.95
2022-11-12T10:28:17.760Z,8.95
2022-11-12T10:30:22.201Z,10.52
2022-11-12T10:32:26.187Z,8.95
2022-11-12T10:34:31.100Z,8.25
2022-11-12T10:36:37.326Z,7.95
2022-11-12T10:38:43.894Z,11.20
2022-11-12T10:40:46.584Z,9.45
2022-11-12T10:43:00.355Z,7.45
2022-11-12T10:45:20.445Z,7.45
2022-11-12T10:47:31.524Z,7.05
2022-11-12T10:49:34.145Z,6.93
2022-11-12T10:51:38.931Z,7.20
2022-11-12T10:53:41.608Z,7.93
2022-11-12T10:55:56.902Z,7.28
2022-11-12T10:58:19.540Z,8.05
2022-11-12T11:00:23.218Z,7.15
2022-11-12T11:02:26.065Z,7.43
2022-11-12T11:04:35.815Z,8.60
2022-11-12T11:06:38.508Z,8.18
2022-11-12T11:08:43.183Z,7.68
2022-11-12T11:10:45.798Z,10.00
2022-11-12T11:12:48.421Z,8.13
2022-11-12T11:15:08.336Z,7.97
2022-11-12T11:17:17.746Z,7.10
2022-11-12T11:19:21.354Z,7.80
2022-11-12T11:21:41.833Z,8.93
2022-11-12T11:23:51.910Z,8.00
2022-11-12T11:25:58.664Z,8.20
2022-11-12T11:28:12.871Z,7.85
2022-11-12T11:30:20.119Z,7.50
2022-11-12T11:32:50.093Z,8.05
2022-11-12T11:35:06.184Z,7.07
2022-11-12T11:37:29.189Z,7.05
2022-11-12T11:39:42.712Z,7.03
2022-11-12T11:42:10.019Z,6.50
2022-11-12T11:44:26.755Z,5.43
2022-11-12T11:46:44.339Z,6.82
2022-11-12T11:48:55.361Z,6.88
2022-11-12T11:51:03.559Z,6.03
2022-11-12T11:53:22.121Z,6.15
2022-11-12T11:55:36.022Z,6.50
2022-11-12T11:57:49.851Z,5.80
2022-11-12T12:00:05.690Z,7.25
2022-11-12T12:02:33.772Z,5.75
2022-11-12T12:04:46.459Z,6.68
2022-11-12T12:06:58.592Z,6.55
2022-11-12T12:09:16.660Z,6.50
2022-11-12T12:11:25.335Z,6.03
2022-11-12T12:13:39.516Z,6.95
2022-11-12T12:16:06.907Z,7.35
2022-11-12T12:18:21.169Z,6.25
2022-11-12T12:20:33.806Z,6.93
2022-11-12T12:22:41.787Z,7.10
2022-11-12T12:24:51.187Z,8.05
2022-11-12T12:26:57.288Z,7.05
2022-11-12T12:29:06.313Z,9.13
2022-11-12T12:31:16.218Z,6.93
2022-11-12T12:33:36.416Z,7.28
2022-11-12T12:35:45.465Z,6.22
2022-11-12T12:37:56.388Z,6.20
2022-11-12T12:40:09.572Z,6.90
2022-11-12T12:42:18.301Z,6.55
2022-11-12T12:44:21.074Z,7.65
2022-11-12T12:46:26.778Z,6.10
2022-11-12T12:48:33.530Z,6.93
2022-11-12T12:50:39.251Z,6.95
2022-11-12T12:53:02.265Z,6.78
2022-11-12T12:55:07.413Z,6.85
2022-11-12T12:57:35.304Z,10.52
2022-11-12T12:59:37.905Z,6.80
2022-11-12T13:01:40.591Z,7.78
2022-11-12T13:03:51.769Z,7.45
2022-11-12T13:06:08.124Z,7.63
2022-11-12T13:08:13.396Z,9.20
2022-11-12T13:10:46.789Z,7.38
2022-11-12T13:13:27.679Z,7.47
2022-11-12T13:15:45.369Z,6.75
2022-11-12T13:17:51.074Z,8.48
2022-11-12T13:20:32.301Z,8.10
2022-11-12T13:22:49.107Z,6.72
2022-11-12T13:25:06.889Z,8.43
2022-11-12T13:27:10.891Z,7.68
2022-11-12T13:29:38.172Z,7.55
2022-11-12T13:31:40.817Z,7.75
2022-11-12T13:33:43.569Z,7.88
2022-11-12T13:35:46.186Z,7.38
2022-11-12T13:37:50.973Z,8.38
2022-11-12T13:39:53.626Z,7.65
2022-11-12T13:42:16.375Z,9.80
2022-11-12T13:44:20.536Z,8.32
2022-11-12T13:46:30.114Z,8.75
2022-11-12T13:48:37.761Z,8.00
2022-11-12T13:50:42.272Z,11.05
2022-11-12T13:52:46.206Z,8.10
2022-11-12T13:54:48.858Z,9.27
2022-11-12T13:56:51.526Z,8.50
2022-11-12T13:58:54.143Z,9.30
2022-11-12T14:01:01.196Z,12.73
2022-11-12T14:03:07.306Z,8.30
2022-11-12T14:05:18.591Z,9.52
2022-11-12T14:07:41.439Z,9.52
2022-11-12T14:09:57.998Z,9.63
2022-11-12T14:12:16.685Z,10.02
2022-11-12T14:14:30.576Z,8.95
2022-11-12T14:16:45.771Z,8.88
2022-11-12T14:19:21.882Z,9.50
2022-11-12T14:21:24.566Z,10.40
2022-11-12T14:23:27.588Z,9.98
2022-11-12T14:25:30.383Z,10.10
2022-11-12T14:27:36.428Z,9.38
2022-11-12T14:29:43.514Z,10.85
2022-11-12T14:31:48.074Z,9.23
2022-11-12T14:33:50.670Z,10.05
2022-11-12T14:35:54.879Z,8.55
2022-11-12T14:38:03.651Z,10.50
2022-11-12T14:40:16.642Z,11.48
2022-11-12T14:42:19.252Z,11.10
2022-11-12T14:44:23.901Z,8.95
2022-11-12T14:46:29.788Z,9.50
2022-11-12T14:48:45.113Z,10.80
2022-11-12T14:50:51.126Z,9.98
2022-11-12T14:52:58.872Z,9.30
2022-11-12T14:55:10.005Z,10.45
2022-11-12T14:57:20.093Z,11.82
2022-11-12T14:59:23.097Z,10.68
2022-11-12T15:02:13.884Z,11.73
2022-11-12T15:03:52.344Z,10.90
2022-11-12T15:06:08.203Z,9.80
2022-11-12T15:08:12.711Z,10.18
2022-11-12T15:10:33.359Z,9.90
2022-11-12T15:12:36.215Z,11.30
2022-11-12T15:14:39.068Z,10.10
2022-11-12T15:16:44.292Z,9.85
2022-11-12T15:19:03.421Z,10.07
2022-11-12T15:21:14.387Z,9.77
2022-11-12T15:23:19.292Z,10.68
2022-11-12T15:25:24.281Z,10.02
2022-11-12T15:27:36.986Z,9.52
2022-11-12T15:29:39.595Z,9.40
2022-11-12T15:31:46.687Z,9.70
2022-11-12T15:33:49.323Z,10.13
2022-11-12T15:35:59.705Z,10.43
2022-11-12T15:38:04.853Z,11.98
2022-11-12T15:40:13.362Z,11.32
2022-11-12T15:42:18.468Z,8.95
2022-11-12T15:44:21.114Z,8.93
2022-11-12T15:46:23.961Z,10.85
2022-11-12T15:48:26.625Z,10.40
2022-11-12T15:50:32.187Z,9.57
2022-11-12T15:52:36.180Z,9.35
2022-11-12T15:54:41.196Z,13.60
2022-11-12T15:56:44.604Z,12.95
2022-11-12T15:58:47.408Z,12.02
2022-11-12T16:00:50.259Z,15.90
2022-11-12T16:02:57.474Z,10.63
2022-11-12T16:05:00.285Z,11.65
2022-11-12T16:07:05.729Z,11.18
2022-11-12T16:09:09.862Z,11.57
2022-11-12T16:11:27.899Z,10.93
2022-11-12T16:13:33.143Z,12.18
2022-11-12T16:15:35.883Z,13.82
2022-11-12T16:17:38.607Z,12.32
2022-11-12T16:19:41.314Z,16.20
2022-11-12T16:21:44.101Z,12.65
2022-11-12T16:23:46.750Z,12.35
2022-11-12T16:25:50.871Z,12.25
2022-11-12T16:27:55.981Z,11.57
2022-11-12T16:29:58.842Z,11.65
2022-11-12T16:32:01.540Z,12.43
2022-11-12T16:34:04.103Z,12.35
2022-11-12T16:36:14.609Z,13.57
2022-11-12T16:38:19.303Z,14.77
2022-11-12T16:40:24.148Z,11.35
2022-11-12T16:42:28.371Z,13.18
2022-11-12T16:44:31.087Z,12.85
2022-11-12T16:46:39.321Z,14.63
2022-11-12T16:48:42.312Z,12.90
2022-11-12T16:50:45.522Z,14.70
2022-11-12T16:52:48.613Z,13.77
2022-11-12T16:54:51.396Z,13.55
2022-11-12T16:56:54.286Z,12.40
2022-11-12T16:58:58.503Z,15.35
2022-11-12T17:01:01.283Z,13.38
2022-11-12T17:03:04.389Z,14.32
2022-11-12T17:05:11.195Z,12.80
2022-11-12T17:09:17.935Z,12.43
2022-11-12T17:11:21.174Z,15.40
2022-11-12T17:13:23.885Z,14.13
2022-11-12T17:15:27.941Z,14.18
2022-11-12T17:17:30.767Z,13.73
2022-11-12T17:19:33.443Z,12.95
2022-11-12T17:21:36.220Z,14.38
2022-11-12T17:23:40.239Z,16.25
2022-11-12T17:25:43.145Z,14.32
2022-11-12T17:27:45.960Z,14.57
2022-11-12T17:29:48.796Z,15.43
2022-11-12T17:31:53.010Z,16.13
2022-11-12T17:33:55.940Z,15.70
2022-11-12T17:36:02.856Z,12.77
2022-11-12T17:38:05.668Z,13.40
2022-11-12T17:40:09.826Z,16.15
2022-11-12T17:42:12.673Z,16.02
2022-11-12T17:44:17.691Z,14.07
2022-11-12T17:46:20.403Z,17.00
2022-11-12T17:48:25.664Z,15.65
2022-11-12T17:50:28.283Z,16.02
2022-11-12T17:52:30.897Z,16.02
2022-11-12T17:54:34.416Z,15.25
2022-11-12T17:56:37.376Z,18.63
2022-11-12T17:58:40.366Z,18.75
2022-11-12T18:00:43.098Z,16.02
2022-11-12T18:02:45.730Z,19.88
2022-11-12T18:04:49.730Z,19.60
2022-11-12T18:06:52.350Z,19.48
2022-11-12T18:08:56.158Z,17.25
2022-11-12T18:10:59.060Z,16.50
2022-11-12T18:13:02.877Z,19.00
2022-11-12T18:15:06.308Z,19.58
2022-11-12T18:17:08.981Z,18.27
2022-11-12T18:19:12.460Z,16.52
2022-11-12T18:21:16.916Z,19.70
2022-11-12T18:23:19.513Z,18.55
2022-11-12T18:25:22.142Z,17.98
2022-11-12T18:27:24.827Z,18.63
2022-11-12T18:29:27.486Z,19.95
2022-11-12T18:31:31.554Z,20.90
2022-11-12T18:33:36.006Z,20.15
2022-11-12T18:35:38.625Z,18.98
2022-11-12T18:37:42.588Z,20.85
2022-11-12T18:39:45.198Z,20.35
2022-11-12T18:41:47.806Z,19.73
2022-11-12T18:43:50.414Z,19.30
2022-11-12T18:45:55.432Z,19.02
2022-11-12T18:47:58.065Z,18.63
2022-11-12T18:50:05.459Z,19.27
2022-11-12T18:52:10.969Z,18.23
2022-11-12T18:54:16.117Z,19.10
2022-11-12T18:56:20.864Z,16.90
2022-11-12T18:58:23.541Z,18.27
2022-11-12T19:00:26.146Z,22.58
2022-11-12T19:02:28.759Z,21.75
2022-11-12T19:04:31.983Z,22.48
2022-11-12T19:06:34.601Z,21.48
2022-11-12T19:08:37.177Z,20.13
2022-11-12T19:10:41.233Z,18.33
2022-11-12T19:12:43.869Z,20.33
2022-11-12T19:14:46.463Z,19.25
2022-11-12T19:16:49.151Z,20.25
2022-11-12T19:18:52.390Z,18.75
2022-11-12T19:21:01.496Z,20.33
2022-11-12T19:23:04.112Z,15.95
2022-11-12T19:25:07.603Z,15.50
2022-11-12T19:27:11.645Z,17.42
2022-11-12T19:29:14.324Z,15.00
2022-11-12T19:31:19.186Z,17.35
2022-11-12T19:33:21.929Z,16.27
2022-11-12T19:35:24.609Z,14.38
2022-11-12T19:37:33.522Z,14.20
2022-11-12T19:39:36.383Z,15.23
2022-11-12T19:41:39.019Z,15.13
2022-11-12T19:43:43.463Z,14.32
2022-11-12T19:45:46.111Z,16.27
2022-11-12T19:47:50.732Z,19.00
2022-11-12T19:49:53.441Z,16.25
2022-11-12T19:51:56.079Z,18.80
2022-11-12T19:53:58.712Z,19.08
2022-11-12T19:56:01.423Z,18.88
2022-11-12T19:58:04.147Z,21.10
2022-11-12T20:00:10.767Z,15.65
2022-11-12T20:02:13.980Z,15.15
2022-11-12T20:04:20.166Z,17.48
2022-11-12T20:06:29.265Z,16.65
2022-11-12T20:08:32.288Z,15.80
2022-11-12T20:10:34.962Z,13.98
2022-11-12T20:12:39.954Z,15.45
2022-11-12T20:14:42.570Z,16.23
2022-11-12T20:16:46.534Z,18.08
2022-11-12T20:18:51.190Z,17.77
2022-11-12T20:20:56.090Z,18.67
2022-11-12T20:22:58.735Z,18.10
2022-11-12T20:25:01.699Z,16.77
2022-11-12T20:27:05.628Z,21.98
2022-11-12T20:29:08.359Z,17.35
2022-11-12T20:31:13.174Z,17.58
2022-11-12T20:33:17.150Z,18.60
2022-11-12T20:35:22.430Z,18.25
2022-11-12T20:37:25.707Z,17.55
2022-11-12T20:39:28.317Z,20.27
2022-11-12T20:41:31.345Z,17.27
2022-11-12T20:43:34.734Z,18.42
2022-11-12T20:45:37.387Z,15.10
2022-11-12T20:47:40.039Z,20.42
2022-11-12T20:49:44.005Z,15.68
2022-11-12T20:51:46.626Z,18.45
2022-11-12T20:53:52.369Z,15.43
2022-11-12T20:56:05.794Z,18.30
2022-11-12T20:58:08.568Z,14.50
2022-11-12T21:00:14.322Z,18.42
2022-11-12T21:04:20.435Z,14.43
2022-11-12T21:06:26.293Z,13.70
2022-11-12T21:08:30.294Z,14.90
2022-11-12T21:10:33.202Z,13.88
2022-11-12T21:12:35.858Z,15.93
2022-11-12T21:14:38.727Z,14.75
2022-11-12T21:16:41.639Z,16.98
2022-11-12T21:18:44.488Z,14.70
2022-11-12T21:20:47.947Z,18.20
2022-11-12T21:22:51.911Z,16.00
2022-11-12T21:24:54.610Z,16.40
2022-11-12T21:26:57.229Z,13.57
2022-11-12T21:28:59.926Z,13.60
2022-11-12T21:31:04.870Z,14.18
2022-11-12T21:33:07.504Z,14.57
2022-11-12T21:35:10.667Z,15.57
2022-11-12T21:37:13.322Z,11.77
2022-11-12T21:39:17.293Z,14.50
2022-11-12T21:41:22.552Z,26.02
2022-11-12T21:43:25.335Z,28.58
2022-11-12T21:45:27.948Z,18.92
2022-11-12T21:47:30.546Z,16.15
2022-11-12T21:49:33.259Z,12.25
2022-11-12T21:51:35.905Z,15.52
2022-11-12T21:53:39.286Z,13.80
2022-11-12T21:55:43.330Z,14.25
2022-11-12T21:57:45.941Z,21.50
2022-11-12T21:59:48.620Z,22.75
2022-11-12T22:01:51.288Z,21.50
2022-11-12T22:03:55.870Z,23.20
2022-11-12T22:05:59.975Z,19.92
2022-11-12T22:08:02.718Z,18.65
2022-11-12T22:10:06.004Z,13.32
2022-11-12T22:12:10.090Z,15.52
2022-11-12T22:14:12.750Z,11.43
2022-11-12T22:16:17.793Z,10.73
2022-11-12T22:18:20.423Z,11.88
2022-11-12T22:20:23.062Z,14.18
2022-11-12T22:22:26.275Z,11.75
2022-11-12T22:24:28.883Z,14.90
2022-11-12T22:26:31.890Z,13.25
2022-11-12T22:28:36.179Z,14.55
2022-11-12T22:30:39.035Z,11.82
2022-11-12T22:32:41.636Z,16.67
2022-11-12T22:34:49.223Z,14.18
2022-11-12T22:36:52.102Z,13.15
2022-11-12T22:38:55.931Z,12.60
2022-11-12T22:41:02.736Z,14.18
2022-11-12T22:45:11.108Z,12.70
2022-11-12T22:47:13.739Z,12.82
2022-11-12T22:49:16.409Z,12.80
2022-11-12T22:51:21.407Z,12.82
2022-11-12T22:53:24.035Z,11.68
2022-11-12T22:55:26.663Z,13.07
2022-11-12T22:57:29.272Z,12.20
2022-11-12T22:59:31.892Z,12.07
2022-11-12T23:01:37.036Z,11.80
2022-11-12T23:03:39.726Z,12.77
2022-11-12T23:05:42.529Z,11.80
2022-11-12T23:07:45.213Z,13.68
2022-11-12T23:09:47.819Z,13.13
2022-11-12T23:11:50.490Z,12.68
2022-11-12T23:13:54.170Z,14.63
2022-11-12T23:15:57.846Z,18.60
2022-11-12T23:18:01.813Z,17.17
2022-11-12T23:20:04.744Z,16.05
2022-11-12T23:22:08.311Z,20.17
2022-11-12T23:24:10.997Z,20.77
2022-11-12T23:26:16.021Z,20.05
2022-11-12T23:28:18.614Z,17.30
2022-11-12T23:30:21.253Z,17.05
2022-11-12T23:32:23.898Z,18.40
2022-11-12T23:34:27.871Z,17.35
2022-11-12T23:36:31.308Z,15.43
2022-11-12T23:38:34.465Z,16.42
2022-11-12T23:40:37.185Z,15.80
2022-11-12T23:42:39.807Z,18.00
2022-11-12T23:44:42.399Z,16.08
2022-11-12T23:46:45.010Z,14.45
2022-11-12T23:48:48.255Z,15.88
2022-11-12T23:51:00.295Z,15.13
2022-11-12T23:53:02.978Z,12.48
2022-11-12T23:55:06.272Z,13.55
2022-11-12T23:57:08.911Z,11.43
2022-11-12T23:59:11.507Z,8.85
